sensor_id;sensor_type;location;lat;lon;timestamp;P1;P2;P0
55518;PMS5003;41724;51.176;-0.708;2023-11-18T00:00:48;7;6;
55518;PMS5003;41724;51.176;-0.708;2023-11-18T00:03:15;6;5;
55518;PMS5003;41724;51.176;-0.708;2023-11-18T00:05:42;5;4;
55518;PMS5003;41724;51.176;-0.708;2023-11-18T00:08:09;4;4;
55518;PMS5003;41724;51.176;-0.708;2023-11-18T00:10:38;5;4;
55518;PMS5003;41724;51.176;-0.708;2023-11-18T00:13:05;4;3;
55518;PMS5003;41724;51.176;-0.708;2023-11-18T00:15:32;3;2;
55518;PMS5003;41724;51.176;-0.708;2023-11-18T00:17:59;3;2;
55518;PMS5003;41724;51.176;-0.708;2023-11-18T00:20:27;5;4;
55518;PMS5003;41724;51.176;-0.708;2023-11-18T00:22:53;3;2;
55518;PMS5003;41724;51.176;-0.708;2023-11-18T00:25:21;3;3;
55518;PMS5003;41724;51.176;-0.708;2023-11-18T00:27:47;3;3;
55518;PMS5003;41724;51.176;-0.708;2023-11-18T00:30:15;3;3;
55518;PMS5003;41724;51.176;-0.708;2023-11-18T00:32:42;4;3;
55518;PMS5003;41724;51.176;-0.708;2023-11-18T00:35:09;3;2;
55518;PMS5003;41724;51.176;-0.708;2023-11-18T00:37:39;3;3;
55518;PMS5003;41724;51.176;-0.708;2023-11-18T00:40:06;2;2;
55518;PMS5003;41724;51.176;-0.708;2023-11-18T00:42:34;3;3;
55518;PMS5003;41724;51.176;-0.708;2023-11-18T00:45:01;2;2;
55518;PMS5003;41724;51.176;-0.708;2023-11-18T00:47:28;3;2;
55518;PMS5003;41724;51.176;-0.708;2023-11-18T00:49:55;1;1;
55518;PMS5003;41724;51.176;-0.708;2023-11-18T00:52:22;1;1;
55518;PMS5003;41724;51.176;-0.708;2023-11-18T00:54:49;1;1;
55518;PMS5003;41724;51.176;-0.708;2023-11-18T00:57:16;1;1;
55518;PMS5003;41724;51.176;-0.708;2023-11-18T00:59:43;2;2;
55518;PMS5003;41724;51.176;-0.708;2023-11-18T01:02:11;1;1;
55518;PMS5003;41724;51.176;-0.708;2023-11-18T01:04:38;2;2;
55518;PMS5003;41724;51.176;-0.708;2023-11-18T01:07:05;2;2;
55518;PMS5003;41724;51.176;-0.708;2023-11-18T01:09:33;1;1;
55518;PMS5003;41724;51.176;-0.708;2023-11-18T01:12:00;1;1;
55518;PMS5003;41724;51.176;-0.708;2023-11-18T01:14:27;1;1;
55518;PMS5003;41724;51.176;-0.708;2023-11-18T01:16:55;2;2;
55518;PMS5003;41724;51.176;-0.708;2023-11-18T01:19:22;2;2;
55518;PMS5003;41724;51.176;-0.708;2023-11-18T01:21:49;1;1;
55518;PMS5003;41724;51.176;-0.708;2023-11-18T01:24:16;2;2;
55518;PMS5003;41724;51.176;-0.708;2023-11-18T01:26:43;0;0;
55518;PMS5003;41724;51.176;-0.708;2023-11-18T01:29:10;2;2;
55518;PMS5003;41724;51.176;-0.708;2023-11-18T01:31:37;2;1;
55518;PMS5003;41724;51.176;-0.708;2023-11-18T01:34:04;2;1;
55518;PMS5003;41724;51.176;-0.708;2023-11-18T01:36:31;1;0;
55518;PMS5003;41724;51.176;-0.708;2023-11-18T01:38:58;2;2;
55518;PMS5003;41724;51.176;-0.708;2023-11-18T01:41:25;1;1;
55518;PMS5003;41724;51.176;-0.708;2023-11-18T01:43:52;1;1;
55518;PMS5003;41724;51.176;-0.708;2023-11-18T01:46:19;2;1;
55518;PMS5003;41724;51.176;-0.708;2023-11-18T01:48:46;1;1;
55518;PMS5003;41724;51.176;-0.708;2023-11-18T01:51:13;2;2;
55518;PMS5003;41724;51.176;-0.708;2023-11-18T01:53:41;1;1;
55518;PMS5003;41724;51.176;-0.708;2023-11-18T01:56:10;0;0;
55518;PMS5003;41724;51.176;-0.708;2023-11-18T01:58:37;1;1;
55518;PMS5003;41724;51.176;-0.708;2023-11-18T02:01:05;1;1;
55518;PMS5003;41724;51.176;-0.708;2023-11-18T02:03:32;0;0;
55518;PMS5003;41724;51.176;-0.708;2023-11-18T02:05:59;0;0;
55518;PMS5003;41724;51.176;-0.708;2023-11-18T02:08:28;1;1;
55518;PMS5003;41724;51.176;-0.708;2023-11-18T02:10:58;2;1;
55518;PMS5003;41724;51.176;-0.708;2023-11-18T02:13:33;0;0;
55518;PMS5003;41724;51.176;-0.708;2023-11-18T02:16:02;1;1;
55518;PMS5003;41724;51.176;-0.708;2023-11-18T02:18:32;0;0;
55518;PMS5003;41724;51.176;-0.708;2023-11-18T02:21:00;2;2;
55518;PMS5003;41724;51.176;-0.708;2023-11-18T02:23:28;1;1;
55518;PMS5003;41724;51.176;-0.708;2023-11-18T02:25:55;0;0;
55518;PMS5003;41724;51.176;-0.708;2023-11-18T02:28:22;1;1;
55518;PMS5003;41724;51.176;-0.708;2023-11-18T02:30:52;2;2;
55518;PMS5003;41724;51.176;-0.708;2023-11-18T02:33:27;1;0;
55518;PMS5003;41724;51.176;-0.708;2023-11-18T02:36:01;0;0;
55518;PMS5003;41724;51.176;-0.708;2023-11-18T02:38:35;1;1;
55518;PMS5003;41724;51.176;-0.708;2023-11-18T02:41:11;1;1;
55518;PMS5003;41724;51.176;-0.708;2023-11-18T02:43:40;0;0;
55518;PMS5003;41724;51.176;-0.708;2023-11-18T02:46:07;0;0;
55518;PMS5003;41724;51.176;-0.708;2023-11-18T02:48:36;0;0;
55518;PMS5003;41724;51.176;-0.708;2023-11-18T02:51:05;1;1;
55518;PMS5003;41724;51.176;-0.708;2023-11-18T02:53:32;0;0;
55518;PMS5003;41724;51.176;-0.708;2023-11-18T02:55:59;3;1;
55518;PMS5003;41724;51.176;-0.708;2023-11-18T02:58:27;0;0;
55518;PMS5003;41724;51.176;-0.708;2023-11-18T03:00:53;2;1;
55518;PMS5003;41724;51.176;-0.708;2023-11-18T03:03:21;1;1;
55518;PMS5003;41724;51.176;-0.708;2023-11-18T03:05:48;1;1;
55518;PMS5003;41724;51.176;-0.708;2023-11-18T03:08:15;1;1;
55518;PMS5003;41724;51.176;-0.708;2023-11-18T03:10:43;0;0;
55518;PMS5003;41724;51.176;-0.708;2023-11-18T03:13:11;1;1;
55518;PMS5003;41724;51.176;-0.708;2023-11-18T03:15:38;1;1;
55518;PMS5003;41724;51.176;-0.708;2023-11-18T03:18:05;1;0;
55518;PMS5003;41724;51.176;-0.708;2023-11-18T03:20:33;0;0;
55518;PMS5003;41724;51.176;-0.708;2023-11-18T03:23:00;2;0;
55518;PMS5003;41724;51.176;-0.708;2023-11-18T03:25:27;0;0;
55518;PMS5003;41724;51.176;-0.708;2023-11-18T03:27:54;0;0;
55518;PMS5003;41724;51.176;-0.708;2023-11-18T03:30:21;1;1;
55518;PMS5003;41724;51.176;-0.708;2023-11-18T03:32:48;0;0;
55518;PMS5003;41724;51.176;-0.708;2023-11-18T03:35:16;0;0;
55518;PMS5003;41724;51.176;-0.708;2023-11-18T03:37:43;0;0;
55518;PMS5003;41724;51.176;-0.708;2023-11-18T03:40:10;1;1;
55518;PMS5003;41724;51.176;-0.708;2023-11-18T03:42:39;0;0;
55518;PMS5003;41724;51.176;-0.708;2023-11-18T03:45:06;0;0;
55518;PMS5003;41724;51.176;-0.708;2023-11-18T03:47:34;0;0;
55518;PMS5003;41724;51.176;-0.708;2023-11-18T03:50:01;1;0;
55518;PMS5003;41724;51.176;-0.708;2023-11-18T03:52:28;0;0;
55518;PMS5003;41724;51.176;-0.708;2023-11-18T03:54:55;0;0;
55518;PMS5003;41724;51.176;-0.708;2023-11-18T03:57:22;0;0;
55518;PMS5003;41724;51.176;-0.708;2023-11-18T03:59:49;0;0;
55518;PMS5003;41724;51.176;-0.708;2023-11-18T04:02:16;0;0;
55518;PMS5003;41724;51.176;-0.708;2023-11-18T04:04:43;0;0;
55518;PMS5003;41724;51.176;-0.708;2023-11-18T04:07:10;0;0;
55518;PMS5003;41724;51.176;-0.708;2023-11-18T04:09:37;0;0;
55518;PMS5003;41724;51.176;-0.708;2023-11-18T04:12:05;0;0;
55518;PMS5003;41724;51.176;-0.708;2023-11-18T04:14:32;0;0;
55518;PMS5003;41724;51.176;-0.708;2023-11-18T04:16:59;0;0;
55518;PMS5003;41724;51.176;-0.708;2023-11-18T04:19:27;0;0;
55518;PMS5003;41724;51.176;-0.708;2023-11-18T04:21:56;0;0;
55518;PMS5003;41724;51.176;-0.708;2023-11-18T04:24:22;0;0;
55518;PMS5003;41724;51.176;-0.708;2023-11-18T04:26:49;0;0;
55518;PMS5003;41724;51.176;-0.708;2023-11-18T04:29:16;0;0;
55518;PMS5003;41724;51.176;-0.708;2023-11-18T04:31:44;0;0;
55518;PMS5003;41724;51.176;-0.708;2023-11-18T04:34:11;0;0;
55518;PMS5003;41724;51.176;-0.708;2023-11-18T04:36:38;1;0;
55518;PMS5003;41724;51.176;-0.708;2023-11-18T04:39:07;0;0;
55518;PMS5003;41724;51.176;-0.708;2023-11-18T04:41:34;0;0;
55518;PMS5003;41724;51.176;-0.708;2023-11-18T04:44:01;0;0;
55518;PMS5003;41724;51.176;-0.708;2023-11-18T04:46:29;0;0;
55518;PMS5003;41724;51.176;-0.708;2023-11-18T04:48:56;0;0;
55518;PMS5003;41724;51.176;-0.708;2023-11-18T04:51:23;0;0;
55518;PMS5003;41724;51.176;-0.708;2023-11-18T04:53:50;0;0;
55518;PMS5003;41724;51.176;-0.708;2023-11-18T04:56:17;0;0;
55518;PMS5003;41724;51.176;-0.708;2023-11-18T04:58:44;0;0;
55518;PMS5003;41724;51.176;-0.708;2023-11-18T05:01:14;0;0;
55518;PMS5003;41724;51.176;-0.708;2023-11-18T05:03:42;0;0;
55518;PMS5003;41724;51.176;-0.708;2023-11-18T05:06:09;0;0;
55518;PMS5003;41724;51.176;-0.708;2023-11-18T05:08:36;0;0;
55518;PMS5003;41724;51.176;-0.708;2023-11-18T05:11:03;0;0;
55518;PMS5003;41724;51.176;-0.708;2023-11-18T05:13:30;0;0;
55518;PMS5003;41724;51.176;-0.708;2023-11-18T05:15:57;0;0;
55518;PMS5003;41724;51.176;-0.708;2023-11-18T05:18:24;0;0;
55518;PMS5003;41724;51.176;-0.708;2023-11-18T05:20:51;0;0;
55518;PMS5003;41724;51.176;-0.708;2023-11-18T05:23:18;0;0;
55518;PMS5003;41724;51.176;-0.708;2023-11-18T05:25:45;0;0;
55518;PMS5003;41724;51.176;-0.708;2023-11-18T05:28:12;0;0;
55518;PMS5003;41724;51.176;-0.708;2023-11-18T05:30:40;0;0;
55518;PMS5003;41724;51.176;-0.708;2023-11-18T05:33:08;0;0;
55518;PMS5003;41724;51.176;-0.708;2023-11-18T05:35:35;0;0;
55518;PMS5003;41724;51.176;-0.708;2023-11-18T05:38:02;0;0;
55518;PMS5003;41724;51.176;-0.708;2023-11-18T05:40:29;0;0;
55518;PMS5003;41724;51.176;-0.708;2023-11-18T05:42:56;0;0;
55518;PMS5003;41724;51.176;-0.708;2023-11-18T05:45:23;0;0;
55518;PMS5003;41724;51.176;-0.708;2023-11-18T05:47:50;0;0;
55518;PMS5003;41724;51.176;-0.708;2023-11-18T05:50:17;0;0;
55518;PMS5003;41724;51.176;-0.708;2023-11-18T05:52:44;0;0;
55518;PMS5003;41724;51.176;-0.708;2023-11-18T05:55:13;0;0;
55518;PMS5003;41724;51.176;-0.708;2023-11-18T05:57:40;0;0;
55518;PMS5003;41724;51.176;-0.708;2023-11-18T06:00:08;0;0;
55518;PMS5003;41724;51.176;-0.708;2023-11-18T06:02:35;0;0;
55518;PMS5003;41724;51.176;-0.708;2023-11-18T06:05:02;0;0;
55518;PMS5003;41724;51.176;-0.708;2023-11-18T06:07:30;0;0;
55518;PMS5003;41724;51.176;-0.708;2023-11-18T06:09:57;0;0;
55518;PMS5003;41724;51.176;-0.708;2023-11-18T06:12:24;0;0;
55518;PMS5003;41724;51.176;-0.708;2023-11-18T06:14:51;0;0;
55518;PMS5003;41724;51.176;-0.708;2023-11-18T06:17:18;0;0;
55518;PMS5003;41724;51.176;-0.708;2023-11-18T06:19:45;0;0;
55518;PMS5003;41724;51.176;-0.708;2023-11-18T06:22:12;0;0;
55518;PMS5003;41724;51.176;-0.708;2023-11-18T06:24:40;0;0;
55518;PMS5003;41724;51.176;-0.708;2023-11-18T06:27:07;0;0;
55518;PMS5003;41724;51.176;-0.708;2023-11-18T06:29:34;0;0;
55518;PMS5003;41724;51.176;-0.708;2023-11-18T06:32:01;0;0;
55518;PMS5003;41724;51.176;-0.708;2023-11-18T06:34:28;0;0;
55518;PMS5003;41724;51.176;-0.708;2023-11-18T06:36:55;0;0;
55518;PMS5003;41724;51.176;-0.708;2023-11-18T06:39:22;0;0;
55518;PMS5003;41724;51.176;-0.708;2023-11-18T06:41:49;0;0;
55518;PMS5003;41724;51.176;-0.708;2023-11-18T06:44:16;0;0;
55518;PMS5003;41724;51.176;-0.708;2023-11-18T06:46:43;1;0;
55518;PMS5003;41724;51.176;-0.708;2023-11-18T06:49:10;0;0;
55518;PMS5003;41724;51.176;-0.708;2023-11-18T06:51:37;0;0;
55518;PMS5003;41724;51.176;-0.708;2023-11-18T06:54:04;0;0;
55518;PMS5003;41724;51.176;-0.708;2023-11-18T06:56:32;0;0;
55518;PMS5003;41724;51.176;-0.708;2023-11-18T06:58:59;0;0;
55518;PMS5003;41724;51.176;-0.708;2023-11-18T07:01:26;0;0;
55518;PMS5003;41724;51.176;-0.708;2023-11-18T07:03:54;0;0;
55518;PMS5003;41724;51.176;-0.708;2023-11-18T07:06:22;0;0;
55518;PMS5003;41724;51.176;-0.708;2023-11-18T07:08:49;0;0;
55518;PMS5003;41724;51.176;-0.708;2023-11-18T07:11:18;0;0;
55518;PMS5003;41724;51.176;-0.708;2023-11-18T07:13:46;0;0;
55518;PMS5003;41724;51.176;-0.708;2023-11-18T07:16:14;0;0;
55518;PMS5003;41724;51.176;-0.708;2023-11-18T07:18:41;0;0;
55518;PMS5003;41724;51.176;-0.708;2023-11-18T07:21:09;0;0;
55518;PMS5003;41724;51.176;-0.708;2023-11-18T07:23:37;0;0;
55518;PMS5003;41724;51.176;-0.708;2023-11-18T07:26:04;0;0;
55518;PMS5003;41724;51.176;-0.708;2023-11-18T07:28:31;0;0;
55518;PMS5003;41724;51.176;-0.708;2023-11-18T07:30:58;0;0;
55518;PMS5003;41724;51.176;-0.708;2023-11-18T07:33:25;0;0;
55518;PMS5003;41724;51.176;-0.708;2023-11-18T07:35:52;0;0;
55518;PMS5003;41724;51.176;-0.708;2023-11-18T07:38:19;0;0;
55518;PMS5003;41724;51.176;-0.708;2023-11-18T07:40:46;0;0;
55518;PMS5003;41724;51.176;-0.708;2023-11-18T07:43:13;0;0;
55518;PMS5003;41724;51.176;-0.708;2023-11-18T07:45:41;0;0;
55518;PMS5003;41724;51.176;-0.708;2023-11-18T07:48:08;0;0;
55518;PMS5003;41724;51.176;-0.708;2023-11-18T07:50:36;0;0;
55518;PMS5003;41724;51.176;-0.708;2023-11-18T07:53:04;0;0;
55518;PMS5003;41724;51.176;-0.708;2023-11-18T07:55:31;0;0;
55518;PMS5003;41724;51.176;-0.708;2023-11-18T07:57:58;0;0;
55518;PMS5003;41724;51.176;-0.708;2023-11-18T08:00:26;0;0;
55518;PMS5003;41724;51.176;-0.708;2023-11-18T08:02:54;0;0;
55518;PMS5003;41724;51.176;-0.708;2023-11-18T08:05:20;0;0;
55518;PMS5003;41724;51.176;-0.708;2023-11-18T08:07:47;0;0;
55518;PMS5003;41724;51.176;-0.708;2023-11-18T08:10:15;0;0;
55518;PMS5003;41724;51.176;-0.708;2023-11-18T08:12:41;0;0;
55518;PMS5003;41724;51.176;-0.708;2023-11-18T08:15:09;0;0;
55518;PMS5003;41724;51.176;-0.708;2023-11-18T08:17:36;0;0;
55518;PMS5003;41724;51.176;-0.708;2023-11-18T08:20:03;0;0;
55518;PMS5003;41724;51.176;-0.708;2023-11-18T08:22:30;0;0;
55518;PMS5003;41724;51.176;-0.708;2023-11-18T08:24:57;0;0;
55518;PMS5003;41724;51.176;-0.708;2023-11-18T08:27:24;0;0;
55518;PMS5003;41724;51.176;-0.708;2023-11-18T08:29:51;0;0;
55518;PMS5003;41724;51.176;-0.708;2023-11-18T08:32:18;0;0;
55518;PMS5003;41724;51.176;-0.708;2023-11-18T08:34:45;0;0;
55518;PMS5003;41724;51.176;-0.708;2023-11-18T08:37:12;0;0;
55518;PMS5003;41724;51.176;-0.708;2023-11-18T08:39:39;0;0;
55518;PMS5003;41724;51.176;-0.708;2023-11-18T08:42:06;0;0;
55518;PMS5003;41724;51.176;-0.708;2023-11-18T08:44:33;0;0;
55518;PMS5003;41724;51.176;-0.708;2023-11-18T08:47:00;0;0;
55518;PMS5003;41724;51.176;-0.708;2023-11-18T08:49:27;0;0;
55518;PMS5003;41724;51.176;-0.708;2023-11-18T08:51:54;0;0;
55518;PMS5003;41724;51.176;-0.708;2023-11-18T08:54:21;1;1;
55518;PMS5003;41724;51.176;-0.708;2023-11-18T08:56:48;1;1;
55518;PMS5003;41724;51.176;-0.708;2023-11-18T08:59:16;1;0;
55518;PMS5003;41724;51.176;-0.708;2023-11-18T09:01:44;3;3;
55518;PMS5003;41724;51.176;-0.708;2023-11-18T09:04:11;5;4;
55518;PMS5003;41724;51.176;-0.708;2023-11-18T09:06:38;5;5;
55518;PMS5003;41724;51.176;-0.708;2023-11-18T09:09:05;0;0;
55518;PMS5003;41724;51.176;-0.708;2023-11-18T09:11:32;1;1;
55518;PMS5003;41724;51.176;-0.708;2023-11-18T09:13:59;0;0;
55518;PMS5003;41724;51.176;-0.708;2023-11-18T09:16:26;0;0;
55518;PMS5003;41724;51.176;-0.708;2023-11-18T09:18:55;0;0;
55518;PMS5003;41724;51.176;-0.708;2023-11-18T09:21:22;1;1;
55518;PMS5003;41724;51.176;-0.708;2023-11-18T09:23:49;0;0;
55518;PMS5003;41724;51.176;-0.708;2023-11-18T09:26:17;2;2;
55518;PMS5003;41724;51.176;-0.708;2023-11-18T09:28:44;6;6;
55518;PMS5003;41724;51.176;-0.708;2023-11-18T09:31:11;0;0;
55518;PMS5003;41724;51.176;-0.708;2023-11-18T09:33:39;2;1;
55518;PMS5003;41724;51.176;-0.708;2023-11-18T09:36:07;2;1;
55518;PMS5003;41724;51.176;-0.708;2023-11-18T09:38:36;0;0;
55518;PMS5003;41724;51.176;-0.708;2023-11-18T09:41:04;0;0;
55518;PMS5003;41724;51.176;-0.708;2023-11-18T09:43:33;1;1;
55518;PMS5003;41724;51.176;-0.708;2023-11-18T09:46:02;0;0;
55518;PMS5003;41724;51.176;-0.708;2023-11-18T09:48:31;0;0;
55518;PMS5003;41724;51.176;-0.708;2023-11-18T09:50:59;2;1;
55518;PMS5003;41724;51.176;-0.708;2023-11-18T09:53:28;1;1;
55518;PMS5003;41724;51.176;-0.708;2023-11-18T09:55:59;1;1;
55518;PMS5003;41724;51.176;-0.708;2023-11-18T09:58:37;0;0;
55518;PMS5003;41724;51.176;-0.708;2023-11-18T10:01:08;0;0;
55518;PMS5003;41724;51.176;-0.708;2023-11-18T10:03:37;1;1;
55518;PMS5003;41724;51.176;-0.708;2023-11-18T10:06:04;0;0;
55518;PMS5003;41724;51.176;-0.708;2023-11-18T10:08:33;0;0;
55518;PMS5003;41724;51.176;-0.708;2023-11-18T10:11:01;0;0;
55518;PMS5003;41724;51.176;-0.708;2023-11-18T10:13:28;1;0;
55518;PMS5003;41724;51.176;-0.708;2023-11-18T10:15:55;0;0;
55518;PMS5003;41724;51.176;-0.708;2023-11-18T10:18:22;0;0;
55518;PMS5003;41724;51.176;-0.708;2023-11-18T10:20:50;0;0;
55518;PMS5003;41724;51.176;-0.708;2023-11-18T10:23:18;0;0;
55518;PMS5003;41724;51.176;-0.708;2023-11-18T10:25:49;0;0;
55518;PMS5003;41724;51.176;-0.708;2023-11-18T10:28:25;0;0;
55518;PMS5003;41724;51.176;-0.708;2023-11-18T10:30:53;0;0;
55518;PMS5003;41724;51.176;-0.708;2023-11-18T10:33:21;0;0;
55518;PMS5003;41724;51.176;-0.708;2023-11-18T10:35:49;0;0;
55518;PMS5003;41724;51.176;-0.708;2023-11-18T10:38:16;1;0;
55518;PMS5003;41724;51.176;-0.708;2023-11-18T10:40:43;0;0;
55518;PMS5003;41724;51.176;-0.708;2023-11-18T10:43:11;0;0;
55518;PMS5003;41724;51.176;-0.708;2023-11-18T10:45:38;0;0;
55518;PMS5003;41724;51.176;-0.708;2023-11-18T10:48:05;0;0;
55518;PMS5003;41724;51.176;-0.708;2023-11-18T10:50:32;0;0;
55518;PMS5003;41724;51.176;-0.708;2023-11-18T10:53:00;0;0;
55518;PMS5003;41724;51.176;-0.708;2023-11-18T10:55:35;0;0;
55518;PMS5003;41724;51.176;-0.708;2023-11-18T10:58:02;0;0;
55518;PMS5003;41724;51.176;-0.708;2023-11-18T11:00:46;0;0;
55518;PMS5003;41724;51.176;-0.708;2023-11-18T11:03:15;1;1;
55518;PMS5003;41724;51.176;-0.708;2023-11-18T11:05:42;11;9;
55518;PMS5003;41724;51.176;-0.708;2023-11-18T11:08:10;5;4;
55518;PMS5003;41724;51.176;-0.708;2023-11-18T11:10:40;5;5;
55518;PMS5003;41724;51.176;-0.708;2023-11-18T11:13:07;1;1;
55518;PMS5003;41724;51.176;-0.708;2023-11-18T11:15:36;3;2;
55518;PMS5003;41724;51.176;-0.708;2023-11-18T11:18:09;2;2;
55518;PMS5003;41724;51.176;-0.708;2023-11-18T11:20:39;1;1;
55518;PMS5003;41724;51.176;-0.708;2023-11-18T11:23:14;2;2;
55518;PMS5003;41724;51.176;-0.708;2023-11-18T11:25:51;1;1;
55518;PMS5003;41724;51.176;-0.708;2023-11-18T11:28:28;1;1;
55518;PMS5003;41724;51.176;-0.708;2023-11-18T11:31:10;3;2;
55518;PMS5003;41724;51.176;-0.708;2023-11-18T11:33:46;2;2;
55518;PMS5003;41724;51.176;-0.708;2023-11-18T11:36:24;6;5;
55518;PMS5003;41724;51.176;-0.708;2023-11-18T11:38:56;2;2;
55518;PMS5003;41724;51.176;-0.708;2023-11-18T11:41:25;3;2;
55518;PMS5003;41724;51.176;-0.708;2023-11-18T11:43:53;4;3;
55518;PMS5003;41724;51.176;-0.708;2023-11-18T11:46:21;1;0;
55518;PMS5003;41724;51.176;-0.708;2023-11-18T11:48:49;2;2;
55518;PMS5003;41724;51.176;-0.708;2023-11-18T11:51:22;2;2;
55518;PMS5003;41724;51.176;-0.708;2023-11-18T11:53:55;2;2;
55518;PMS5003;41724;51.176;-0.708;2023-11-18T11:56:44;2;1;
55518;PMS5003;41724;51.176;-0.708;2023-11-18T11:59:11;1;1;
55518;PMS5003;41724;51.176;-0.708;2023-11-18T12:01:40;2;1;
55518;PMS5003;41724;51.176;-0.708;2023-11-18T12:04:08;0;0;
55518;PMS5003;41724;51.176;-0.708;2023-11-18T12:06:41;3;3;
55518;PMS5003;41724;51.176;-0.708;2023-11-18T12:09:09;2;1;
55518;PMS5003;41724;51.176;-0.708;2023-11-18T12:11:37;2;1;
55518;PMS5003;41724;51.176;-0.708;2023-11-18T12:14:05;2;0;
55518;PMS5003;41724;51.176;-0.708;2023-11-18T12:16:58;0;0;
55518;PMS5003;41724;51.176;-0.708;2023-11-18T12:19:29;1;1;
55518;PMS5003;41724;51.176;-0.708;2023-11-18T12:21:57;0;0;
55518;PMS5003;41724;51.176;-0.708;2023-11-18T12:24:24;0;0;
55518;PMS5003;41724;51.176;-0.708;2023-11-18T12:26:51;0;0;
55518;PMS5003;41724;51.176;-0.708;2023-11-18T12:29:40;2;0;
55518;PMS5003;41724;51.176;-0.708;2023-11-18T12:32:08;1;1;
55518;PMS5003;41724;51.176;-0.708;2023-11-18T12:34:51;3;3;
55518;PMS5003;41724;51.176;-0.708;2023-11-18T12:37:42;10;10;
55518;PMS5003;41724;51.176;-0.708;2023-11-18T12:41:04;2;2;
55518;PMS5003;41724;51.176;-0.708;2023-11-18T12:43:39;2;2;
55518;PMS5003;41724;51.176;-0.708;2023-11-18T12:46:26;1;1;
55518;PMS5003;41724;51.176;-0.708;2023-11-18T12:49:15;0;0;
55518;PMS5003;41724;51.176;-0.708;2023-11-18T12:51:42;1;1;
55518;PMS5003;41724;51.176;-0.708;2023-11-18T12:54:11;7;6;
55518;PMS5003;41724;51.176;-0.708;2023-11-18T12:56:38;13;12;
55518;PMS5003;41724;51.176;-0.708;2023-11-18T12:59:06;16;16;
55518;PMS5003;41724;51.176;-0.708;2023-11-18T13:01:33;8;7;
55518;PMS5003;41724;51.176;-0.708;2023-11-18T13:04:00;17;14;
55518;PMS5003;41724;51.176;-0.708;2023-11-18T13:06:27;19;16;
55518;PMS5003;41724;51.176;-0.708;2023-11-18T13:08:55;17;17;
55518;PMS5003;41724;51.176;-0.708;2023-11-18T13:11:23;8;8;
55518;PMS5003;41724;51.176;-0.708;2023-11-18T13:13:51;4;4;
55518;PMS5003;41724;51.176;-0.708;2023-11-18T13:16:18;4;3;
55518;PMS5003;41724;51.176;-0.708;2023-11-18T13:18:46;11;11;
55518;PMS5003;41724;51.176;-0.708;2023-11-18T13:21:14;4;4;
55518;PMS5003;41724;51.176;-0.708;2023-11-18T13:23:41;6;5;
55518;PMS5003;41724;51.176;-0.708;2023-11-18T13:26:12;4;4;
55518;PMS5003;41724;51.176;-0.708;2023-11-18T13:28:40;4;4;
55518;PMS5003;41724;51.176;-0.708;2023-11-18T13:31:07;7;6;
55518;PMS5003;41724;51.176;-0.708;2023-11-18T13:33:35;9;8;
55518;PMS5003;41724;51.176;-0.708;2023-11-18T13:36:04;2;2;
55518;PMS5003;41724;51.176;-0.708;2023-11-18T13:38:31;6;5;
55518;PMS5003;41724;51.176;-0.708;2023-11-18T13:40:59;3;3;
55518;PMS5003;41724;51.176;-0.708;2023-11-18T13:43:25;3;2;
55518;PMS5003;41724;51.176;-0.708;2023-11-18T13:45:52;4;1;
55518;PMS5003;41724;51.176;-0.708;2023-11-18T13:48:21;1;1;
55518;PMS5003;41724;51.176;-0.708;2023-11-18T13:50:48;2;2;
55518;PMS5003;41724;51.176;-0.708;2023-11-18T13:53:16;2;2;
55518;PMS5003;41724;51.176;-0.708;2023-11-18T13:55:43;3;3;
55518;PMS5003;41724;51.176;-0.708;2023-11-18T13:58:11;5;4;
55518;PMS5003;41724;51.176;-0.708;2023-11-18T14:00:38;2;2;
55518;PMS5003;41724;51.176;-0.708;2023-11-18T14:03:06;4;3;
55518;PMS5003;41724;51.176;-0.708;2023-11-18T14:05:33;6;4;
55518;PMS5003;41724;51.176;-0.708;2023-11-18T14:08:01;3;2;
55518;PMS5003;41724;51.176;-0.708;2023-11-18T14:10:30;5;3;
55518;PMS5003;41724;51.176;-0.708;2023-11-18T14:12:58;4;3;
55518;PMS5003;41724;51.176;-0.708;2023-11-18T14:15:27;3;3;
55518;PMS5003;41724;51.176;-0.708;2023-11-18T14:17:55;5;4;
55518;PMS5003;41724;51.176;-0.708;2023-11-18T14:20:22;14;14;
55518;PMS5003;41724;51.176;-0.708;2023-11-18T14:22:49;5;4;
55518;PMS5003;41724;51.176;-0.708;2023-11-18T14:25:15;5;5;
55518;PMS5003;41724;51.176;-0.708;2023-11-18T14:27:43;7;5;
55518;PMS5003;41724;51.176;-0.708;2023-11-18T14:30:11;3;2;
55518;PMS5003;41724;51.176;-0.708;2023-11-18T14:32:40;2;2;
55518;PMS5003;41724;51.176;-0.708;2023-11-18T14:35:07;4;4;
55518;PMS5003;41724;51.176;-0.708;2023-11-18T14:37:34;7;5;
55518;PMS5003;41724;51.176;-0.708;2023-11-18T14:40:01;5;5;
55518;PMS5003;41724;51.176;-0.708;2023-11-18T14:42:28;6;5;
55518;PMS5003;41724;51.176;-0.708;2023-11-18T14:44:55;8;7;
55518;PMS5003;41724;51.176;-0.708;2023-11-18T14:47:22;13;12;
55518;PMS5003;41724;51.176;-0.708;2023-11-18T14:49:48;8;6;
55518;PMS5003;41724;51.176;-0.708;2023-11-18T14:52:15;5;5;
55518;PMS5003;41724;51.176;-0.708;2023-11-18T14:54:42;9;6;
55518;PMS5003;41724;51.176;-0.708;2023-11-18T14:57:09;5;5;
55518;PMS5003;41724;51.176;-0.708;2023-11-18T14:59:36;5;5;
55518;PMS5003;41724;51.176;-0.708;2023-11-18T15:02:03;5;5;
55518;PMS5003;41724;51.176;-0.708;2023-11-18T15:04:31;4;3;
55518;PMS5003;41724;51.176;-0.708;2023-11-18T15:06:58;7;7;
55518;PMS5003;41724;51.176;-0.708;2023-11-18T15:09:25;8;6;
55518;PMS5003;41724;51.176;-0.708;2023-11-18T15:11:52;9;9;
55518;PMS5003;41724;51.176;-0.708;2023-11-18T15:14:19;9;8;
55518;PMS5003;41724;51.176;-0.708;2023-11-18T15:16:45;9;5;
55518;PMS5003;41724;51.176;-0.708;2023-11-18T15:19:13;3;3;
55518;PMS5003;41724;51.176;-0.708;2023-11-18T15:21:40;6;5;
55518;PMS5003;41724;51.176;-0.708;2023-11-18T15:24:08;6;4;
55518;PMS5003;41724;51.176;-0.708;2023-11-18T15:26:35;5;4;
55518;PMS5003;41724;51.176;-0.708;2023-11-18T15:29:02;6;5;
55518;PMS5003;41724;51.176;-0.708;2023-11-18T15:31:29;13;10;
55518;PMS5003;41724;51.176;-0.708;2023-11-18T15:33:56;8;7;
55518;PMS5003;41724;51.176;-0.708;2023-11-18T15:36:23;9;7;
55518;PMS5003;41724;51.176;-0.708;2023-11-18T15:38:50;3;3;
55518;PMS5003;41724;51.176;-0.708;2023-11-18T15:41:17;2;2;
55518;PMS5003;41724;51.176;-0.708;2023-11-18T15:43:44;6;5;
55518;PMS5003;41724;51.176;-0.708;2023-11-18T15:46:10;8;5;
55518;PMS5003;41724;51.176;-0.708;2023-11-18T15:48:37;7;5;
55518;PMS5003;41724;51.176;-0.708;2023-11-18T15:51:05;5;4;
55518;PMS5003;41724;51.176;-0.708;2023-11-18T15:53:32;7;4;
55518;PMS5003;41724;51.176;-0.708;2023-11-18T15:55:59;4;4;
55518;PMS5003;41724;51.176;-0.708;2023-11-18T15:58:26;10;9;
55518;PMS5003;41724;51.176;-0.708;2023-11-18T16:00:53;5;5;
55518;PMS5003;41724;51.176;-0.708;2023-11-18T16:03:20;7;5;
55518;PMS5003;41724;51.176;-0.708;2023-11-18T16:05:47;7;6;
55518;PMS5003;41724;51.176;-0.708;2023-11-18T16:08:14;13;10;
55518;PMS5003;41724;51.176;-0.708;2023-11-18T16:10:41;6;5;
55518;PMS5003;41724;51.176;-0.708;2023-11-18T16:13:08;6;5;
55518;PMS5003;41724;51.176;-0.708;2023-11-18T16:15:35;9;8;
55518;PMS5003;41724;51.176;-0.708;2023-11-18T16:18:01;8;8;
55518;PMS5003;41724;51.176;-0.708;2023-11-18T16:20:29;6;5;
55518;PMS5003;41724;51.176;-0.708;2023-11-18T16:22:56;6;5;
55518;PMS5003;41724;51.176;-0.708;2023-11-18T16:25:24;7;6;
55518;PMS5003;41724;51.176;-0.708;2023-11-18T16:27:52;10;8;
55518;PMS5003;41724;51.176;-0.708;2023-11-18T16:30:20;12;10;
55518;PMS5003;41724;51.176;-0.708;2023-11-18T16:32:48;10;8;
55518;PMS5003;41724;51.176;-0.708;2023-11-18T16:35:15;7;7;
55518;PMS5003;41724;51.176;-0.708;2023-11-18T16:37:42;12;8;
55518;PMS5003;41724;51.176;-0.708;2023-11-18T16:40:10;8;7;